Time;durP1;ratioP1;P1;durP2;ratioP2;P2;SDS_P1;SDS_P2;PMS_P1;PMS_P2;Temp;Humidity;BMP_temperature;BMP_pressure;BME280_temperature;BME280_humidity;BME280_pressure;Samples;Min_cycle;Max_cycle;Signal;HPM_P1;HPM_P2
2022/06/07 00:00:06;;;;;;;6.00;2.30;;;;;14.04;97546.80;;;;108410;1275;41170;-65
2022/06/07 00:02:56;;;;;;;5.10;2.30;;;;;14.00;97548.60;;;;108289;1276;41375;-66
2022/06/07 00:05:26;;;;;;;4.80;2.20;;;;;14.00;97543.20;;;;108329;1276;41201;-65
2022/06/07 00:07:56;;;;;;;;;;;;;13.90;97542.60;;;;108358;1274;41701;-66
2022/06/07 00:10:27;;;;;;;5.10;2.40;;;;;13.90;97538.20;;;;108400;1275;41656;-65
2022/06/07 00:13:00;;;;;;;4.60;2.10;;;;;13.88;97538.00;;;;108476;1274;41189;-65
2022/06/07 00:15:30;;;;;;;5.00;2.30;;;;;13.80;97539.60;;;;108513;1276;41928;-66
2022/06/07 00:18:03;;;;;;;6.50;2.50;;;;;13.80;97537.80;;;;108465;1274;42151;-65
2022/06/07 00:20:34;;;;;;;5.10;2.50;;;;;13.80;97537.00;;;;108779;1270;41197;-66
2022/06/07 00:23:10;;;;;;;4.90;2.30;;;;;13.80;97540.20;;;;108779;1269;41163;-66
2022/06/07 00:25:41;;;;;;;5.20;2.20;;;;;13.70;97536.60;;;;108662;1270;41189;-66
2022/06/07 00:28:11;;;;;;;5.90;2.30;;;;;13.70;97538.40;;;;108722;1270;41638;-66
2022/06/07 00:30:41;;;;;;;6.30;2.40;;;;;13.66;97533.20;;;;108738;1270;41625;-66
2022/06/07 00:33:11;;;;;;;6.30;2.60;;;;;13.60;97529.60;;;;108789;1270;42514;-66
2022/06/07 00:35:41;;;;;;;7.30;2.70;;;;;13.62;97528.80;;;;108753;1270;41629;-65
2022/06/07 00:38:13;;;;;;;5.40;2.50;;;;;13.64;97531.00;;;;108786;1270;41706;-66
2022/06/07 00:40:44;;;;;;;6.00;2.80;;;;;13.70;97528.60;;;;108595;1270;41178;-66
2022/06/07 00:43:14;;;;;;;5.20;2.30;;;;;13.70;97526.40;;;;108747;1269;42111;-65
2022/06/07 00:45:47;;;;;;;5.20;2.40;;;;;13.60;97523.80;;;;108941;1267;41623;-65
2022/06/07 00:48:19;;;;;;;5.50;2.60;;;;;13.60;97521.40;;;;108866;1267;41230;-66
2022/06/07 00:50:57;;;;;;;5.20;2.50;;;;;13.60;97524.40;;;;108801;1270;41275;-66
2022/06/07 00:53:30;;;;;;;6.00;2.70;;;;;13.60;97516.20;;;;108823;1270;42047;-65
2022/06/07 00:56:06;;;;;;;5.00;2.40;;;;;13.50;97512.20;;;;108659;1270;41216;-67
2022/06/07 00:58:36;;;;;;;6.40;3.00;;;;;13.50;97504.80;;;;108713;1270;41198;-66
2022/06/07 01:01:08;;;;;;;7.10;2.50;;;;;13.50;97514.20;;;;108785;1267;41973;-65
2022/06/07 01:03:41;;;;;;;4.50;2.30;;;;;13.40;97511.80;;;;108761;1270;41269;-66
2022/06/07 01:11:52;;;;;;;5.70;2.30;;;;;13.20;97511.40;;;;108815;1268;41170;-64
2022/06/07 01:14:22;;;;;;;4.80;2.30;;;;;13.20;97509.20;;;;108812;1268;41165;-65
2022/06/07 01:16:54;;;;;;;6.50;2.80;;;;;13.10;97505.20;;;;108794;1268;41167;-65
2022/06/07 01:19:27;;;;;;;6.20;2.70;;;;;13.10;97507.80;;;;108833;1270;41457;-66
2022/06/07 01:21:58;;;;;;;6.50;3.00;;;;;13.10;97498.40;;;;108766;1270;41291;-65
2022/06/07 01:24:28;;;;;;;6.60;2.90;;;;;13.00;97503.20;;;;108784;1270;41861;-65
2022/06/07 01:27:07;;;;;;;5.60;2.90;;;;;13.00;97502.20;;;;108779;1267;41280;-65
2022/06/07 01:29:38;;;;;;;7.70;3.00;;;;;13.00;97506.20;;;;108894;1267;42779;-65
2022/06/07 01:32:12;;;;;;;5.50;2.50;;;;;13.00;97506.80;;;;108821;1267;41184;-66
2022/06/07 01:34:43;;;;;;;4.30;2.00;;;;;12.90;97499.40;;;;108849;1267;41290;-65
2022/06/07 01:37:17;;;;;;;4.90;2.30;;;;;12.80;97497.20;;;;108798;1267;42401;-65
2022/06/07 01:42:36;;;;;;;5.00;2.30;;;;;12.70;97496.20;;;;108884;1267;41573;-65
2022/06/07 01:45:07;;;;;;;5.30;2.50;;;;;12.60;97496.00;;;;108774;1268;41287;-66
2022/06/07 01:47:38;;;;;;;5.20;2.50;;;;;12.60;97498.60;;;;108848;1268;41516;-65
2022/06/07 01:50:09;;;;;;;5.40;2.70;;;;;12.52;97499.60;;;;108790;1267;41320;-66
2022/06/07 01:52:40;;;;;;;6.00;2.90;;;;;12.50;97499.80;;;;108831;1267;41921;-66
2022/06/07 01:55:18;;;;;;;5.80;2.70;;;;;12.50;97499.20;;;;108661;1268;41288;-65
2022/06/07 01:58:04;;;;;;;5.60;2.60;;;;;12.50;97502.40;;;;108755;1268;41182;-65
2022/06/07 02:00:35;;;;;;;7.60;2.70;;;;;12.40;97504.40;;;;108822;1267;41287;-66
2022/06/07 02:03:06;;;;;;;5.20;2.50;;;;;12.38;97502.00;;;;108945;1267;41296;-66
2022/06/07 02:05:36;;;;;;;6.90;2.70;;;;;12.30;97501.40;;;;108605;1270;41699;-66
2022/06/07 02:08:06;;;;;;;6.50;3.00;;;;;12.26;97499.80;;;;108977;1268;41177;-66
2022/06/07 02:10:39;;;;;;;6.10;3.00;;;;;12.20;97501.80;;;;108881;1269;41171;-65
2022/06/07 02:13:16;;;;;;;8.50;3.30;;;;;12.20;97498.20;;;;108852;1267;41975;-65
2022/06/07 02:15:48;;;;;;;7.30;3.20;;;;;12.20;97498.60;;;;108717;1270;41282;-66
2022/06/07 02:18:18;;;;;;;;;;;;;12.14;97502.20;;;;109033;1267;41173;-64
2022/06/07 02:21:14;;;;;;;8.30;4.20;;;;;12.10;97507.80;;;;108881;1268;41193;-65
2022/06/07 02:23:44;;;;;;;8.00;4.00;;;;;12.16;97503.00;;;;108763;1268;41973;-65
2022/06/07 02:26:21;;;;;;;9.60;4.20;;;;;12.20;97505.00;;;;108846;1268;41198;-65
2022/06/07 02:28:55;;;;;;;9.40;4.00;;;;;12.30;97505.60;;;;108745;1270;41197;-65
2022/06/07 02:31:27;;;;;;;7.80;3.90;;;;;12.30;97516.80;;;;108979;1267;41274;-66
2022/06/07 02:33:59;;;;;;;8.20;3.80;;;;;12.38;97515.40;;;;108791;1270;41626;-66
2022/06/07 02:36:31;;;;;;;8.50;4.10;;;;;12.34;97514.20;;;;108820;1269;42051;-66
2022/06/07 02:39:02;;;;;;;8.80;4.50;;;;;12.40;97518.60;;;;108749;1270;41201;-66
2022/06/07 02:41:33;;;;;;;7.80;4.30;;;;;12.40;97519.80;;;;108765;1268;41187;-66
2022/06/07 02:44:03;;;;;;;;;;;;;12.40;97520.40;;;;108781;1268;41184;-66
2022/06/07 02:46:36;;;;;;;7.90;4.10;;;;;12.40;97514.00;;;;108848;1267;41289;-64
2022/06/07 02:49:07;;;;;;;;;;;;;12.40;97523.20;;;;108852;1268;41285;-66
2022/06/07 02:51:37;;;;;;;7.80;3.90;;;;;12.40;97527.60;;;;108807;1268;41289;-65
2022/06/07 02:54:07;;;;;;;7.50;3.40;;;;;12.40;97528.20;;;;108804;1270;41238;-66
2022/06/07 02:56:38;;;;;;;7.40;3.50;;;;;12.40;97532.00;;;;108761;1268;42000;-66
2022/06/07 02:59:09;;;;;;;7.20;3.50;;;;;12.30;97526.20;;;;108754;1267;41179;-65
2022/06/07 03:01:40;;;;;;;7.40;3.60;;;;;12.18;97528.00;;;;108789;1269;41326;-65
2022/06/07 03:04:11;;;;;;;7.50;3.70;;;;;12.10;97531.40;;;;108785;1270;41187;-64
2022/06/07 03:06:42;;;;;;;7.90;3.80;;;;;12.08;97531.60;;;;108814;1268;41287;-65
2022/06/07 03:09:12;;;;;;;7.30;3.00;;;;;12.06;97538.00;;;;108757;1270;41639;-66
2022/06/07 03:11:42;;;;;;;5.80;2.70;;;;;12.08;97541.60;;;;108682;1268;41282;-66
2022/06/07 03:14:12;;;;;;;7.30;3.00;;;;;12.10;97540.80;;;;108847;1268;41197;-67
2022/06/07 03:16:42;;;;;;;7.30;3.20;;;;;12.10;97538.60;;;;108892;1268;41260;-66
2022/06/07 03:19:14;;;;;;;6.30;3.00;;;;;12.10;97536.20;;;;108831;1268;41756;-65
2022/06/07 03:21:44;;;;;;;7.50;3.50;;;;;12.10;97540.00;;;;108796;1269;41928;-64
2022/06/07 03:24:14;;;;;;;8.20;4.30;;;;;12.20;97539.40;;;;108683;1270;41190;-65
2022/06/07 03:26:43;;;;;;;10.10;4.80;;;;;12.26;97536.60;;;;108787;1270;41230;-66
2022/06/07 03:29:16;;;;;;;10.10;4.40;;;;;12.32;97543.20;;;;108849;1267;41284;-65
2022/06/07 03:31:46;;;;;;;10.60;4.30;;;;;12.40;97541.60;;;;108684;1270;41293;-66
2022/06/07 03:34:21;;;;;;;8.70;4.10;;;;;12.50;97545.60;;;;108725;1268;42510;-65
2022/06/07 03:36:56;;;;;;;7.10;3.50;;;;;12.50;97548.80;;;;108795;1270;41178;-65
2022/06/07 03:39:26;;;;;;;8.30;4.10;;;;;12.44;97554.00;;;;108784;1267;41404;-66
2022/06/07 03:41:58;;;;;;;9.20;4.20;;;;;12.40;97556.00;;;;108768;1268;42356;-66
2022/06/07 03:44:30;;;;;;;8.00;4.00;;;;;12.40;97551.40;;;;108820;1268;41038;-66
2022/06/07 03:47:08;;;;;;;8.10;3.80;;;;;12.50;97545.60;;;;108732;1269;41289;-66
2022/06/07 03:49:39;;;;;;;;;;;;;12.50;97549.00;;;;108795;1269;42581;-66
2022/06/07 03:52:09;;;;;;;11.10;4.40;;;;;12.42;97548.20;;;;108790;1270;41183;-66
2022/06/07 03:54:41;;;;;;;8.00;3.80;;;;;12.50;97548.20;;;;108762;1269;42514;-66
2022/06/07 03:57:11;;;;;;;8.10;4.00;;;;;12.60;97548.20;;;;108886;1268;41884;-65
2022/06/07 03:59:44;;;;;;;9.70;5.10;;;;;12.70;97545.00;;;;108747;1270;41469;-66
2022/06/07 04:02:14;;;;;;;10.40;4.40;;;;;12.80;97547.20;;;;108729;1270;41290;-66
2022/06/07 04:04:44;;;;;;;8.60;4.20;;;;;12.86;97545.00;;;;108761;1270;41630;-66
2022/06/07 04:10:04;;;;;;;11.90;4.60;;;;;13.10;97540.20;;;;108792;1268;41198;-65
2022/06/07 04:12:44;;;;;;;10.50;5.10;;;;;13.22;97537.40;;;;108800;1268;41297;-66
2022/06/07 04:15:15;;;;;;;;;;;;;13.40;97536.00;;;;108935;1268;41295;-64
2022/06/07 04:17:45;;;;;;;11.80;5.20;;;;;13.70;97531.80;;;;108742;1270;42281;-66
2022/06/07 04:20:31;;;;;;;9.00;4.30;;;;;15.14;97500.40;;;;108741;1270;42449;-66
2022/06/07 04:23:02;;;;;;;8.20;4.10;;;;;16.44;97492.80;;;;108787;1270;41177;-66
2022/06/07 04:25:36;;;;;;;8.70;4.00;;;;;17.62;97491.00;;;;108738;1269;41164;-66
2022/06/07 04:28:06;;;;;;;8.00;3.80;;;;;18.52;97483.80;;;;108713;1270;42498;-65
2022/06/07 04:30:37;;;;;;;7.80;3.90;;;;;19.14;97479.60;;;;108734;1270;41237;-65
2022/06/07 04:33:07;;;;;;;7.60;3.70;;;;;19.90;97478.60;;;;108876;1268;41666;-66
2022/06/07 04:35:36;;;;;;;8.30;3.60;;;;;20.80;97478.60;;;;108841;1270;42549;-67
2022/06/07 04:38:08;;;;;;;8.60;3.90;;;;;21.60;97475.80;;;;108668;1270;41742;-65
2022/06/07 04:40:42;;;;;;;7.60;3.20;;;;;22.10;97478.20;;;;108767;1270;41191;-65
2022/06/07 04:43:12;;;;;;;8.40;3.40;;;;;22.80;97475.40;;;;108756;1270;41285;-65
2022/06/07 04:45:42;;;;;;;9.10;3.00;;;;;23.68;97469.40;;;;108873;1268;41913;-65
2022/06/07 04:48:13;;;;;;;7.30;3.50;;;;;24.42;97471.40;;;;108761;1270;41329;-66
2022/06/07 04:51:08;;;;;;;9.60;3.80;;;;;24.90;97468.80;;;;108808;1267;41193;-65
2022/06/07 04:53:42;;;;;;;8.90;3.30;;;;;24.80;97466.00;;;;108704;1270;41179;-65
2022/06/07 04:56:19;;;;;;;8.10;3.70;;;;;25.20;97459.40;;;;108715;1268;41165;-65
2022/06/07 04:58:49;;;;;;;10.60;3.90;;;;;25.54;97466.60;;;;108793;1268;41180;-66
2022/06/07 05:01:22;;;;;;;8.00;3.60;;;;;25.40;97463.00;;;;108820;1270;41178;-66
2022/06/07 05:03:52;;;;;;;7.80;3.00;;;;;25.40;97467.20;;;;108711;1268;41746;-66
2022/06/07 05:06:28;;;;;;;8.00;3.10;;;;;26.00;97471.80;;;;108704;1270;41292;-66
2022/06/07 05:09:24;;;;;;;7.30;2.80;;;;;26.74;97470.80;;;;108819;1267;41286;-66
2022/06/07 05:12:05;;;;;;;6.90;3.00;;;;;27.42;97471.20;;;;108751;1270;41190;-66
2022/06/07 05:14:39;;;;;;;9.40;2.90;;;;;27.54;97465.80;;;;108774;1268;41750;-66
2022/06/07 05:17:09;;;;;;;12.30;3.30;;;;;27.40;97472.00;;;;108817;1267;41963;-67
2022/06/07 05:19:39;;;;;;;8.30;2.90;;;;;27.32;97466.40;;;;108742;1269;41295;-66
2022/06/07 05:22:14;;;;;;;11.50;3.40;;;;;27.68;97468.00;;;;108874;1268;41177;-66
2022/06/07 05:24:55;;;;;;;9.50;2.90;;;;;27.70;97468.00;;;;108881;1268;41231;-66
2022/06/07 05:27:43;;;;;;;4.80;2.30;;;;;27.48;97488.60;;;;108701;1270;41440;-66
2022/06/07 05:30:24;;;;;;;5.20;2.20;;;;;25.90;97507.40;;;;108918;1268;41190;-66
2022/06/07 05:33:20;;;;;;;5.70;2.10;;;;;24.50;97512.80;;;;108912;1268;41302;-65
2022/06/07 05:36:00;;;;;;;4.10;2.10;;;;;23.16;97514.40;;;;108773;1270;41968;-66
2022/06/07 05:38:37;;;;;;;6.50;2.70;;;;;22.80;97512.40;;;;108675;1267;41661;-67
2022/06/07 05:41:23;;;;;;;7.80;2.60;;;;;22.20;97522.20;;;;108736;1268;41285;-67
2022/06/07 05:44:06;;;;;;;5.40;2.40;;;;;21.90;97522.20;;;;108821;1268;42225;-67
2022/06/07 05:46:45;;;;;;;4.70;2.10;;;;;21.50;97519.00;;;;108767;1268;42553;-67
2022/06/07 05:49:41;;;;;;;5.00;2.40;;;;;21.60;97520.20;;;;108756;1268;41184;-67
2022/06/07 05:52:29;;;;;;;4.70;2.30;;;;;21.86;97499.20;;;;108986;1268;41189;-66
2022/06/07 05:55:05;;;;;;;7.80;2.40;;;;;22.86;97481.40;;;;108721;1270;41176;-65
2022/06/07 05:57:49;;;;;;;7.00;2.60;;;;;23.64;97474.20;;;;108644;1268;41188;-67
2022/06/07 06:00:24;;;;;;;7.30;2.30;;;;;24.40;97474.00;;;;108948;1267;41168;-67
2022/06/07 06:02:59;;;;;;;4.20;2.10;;;;;24.40;97474.20;;;;108862;1268;41335;-66
2022/06/07 06:05:48;;;;;;;4.80;2.10;;;;;25.18;97472.60;;;;108932;1268;41173;-66
2022/06/07 06:11:27;;;;;;;6.00;2.50;;;;;26.00;97469.00;;;;108900;1270;41178;-67
2022/06/07 06:14:30;;;;;;;4.90;2.00;;;;;26.90;97463.40;;;;108673;1268;41974;-67
2022/06/07 06:17:10;;;;;;;4.60;2.10;;;;;27.66;97465.60;;;;109035;1267;41701;-67
2022/06/07 06:19:55;;;;;;;11.40;2.30;;;;;27.76;97461.80;;;;108857;1270;41347;-68
2022/06/07 06:22:33;;;;;;;4.60;2.20;;;;;28.02;97459.40;;;;108845;1268;42467;-68
2022/06/07 06:25:09;;;;;;;4.20;2.10;;;;;28.50;97458.00;;;;108730;1270;42429;-68
2022/06/07 06:27:40;;;;;;;4.70;2.00;;;;;28.54;97460.00;;;;108448;1268;403605;-67
2022/06/07 06:30:11;;;;;;;3.40;1.90;;;;;28.14;97453.00;;;;108805;1267;41274;-67
2022/06/07 06:32:47;;;;;;;4.80;2.00;;;;;28.60;97456.20;;;;108721;1269;41651;-68
2022/06/07 06:35:19;;;;;;;3.50;1.70;;;;;28.88;97450.40;;;;109045;1267;41977;-67
2022/06/07 06:37:49;;;;;;;3.60;1.80;;;;;28.80;97449.40;;;;108779;1268;41869;-67
2022/06/07 06:40:19;;;;;;;4.20;2.00;;;;;29.00;97452.40;;;;108762;1267;41173;-67
2022/06/07 06:42:59;;;;;;;3.30;1.80;;;;;28.12;97455.60;;;;108781;1267;41408;-68
2022/06/07 06:46:13;;;;;;;4.70;1.80;;;;;28.82;97456.40;;;;108436;1273;41294;-67
2022/06/07 06:48:43;;;;;;;4.80;1.90;;;;;29.42;97463.80;;;;108397;1274;41614;-68
2022/06/07 06:51:17;;;;;;;4.40;1.90;;;;;30.06;97461.00;;;;108725;1267;41629;-67
2022/06/07 06:53:46;;;;;;;3.10;1.70;;;;;30.90;97460.20;;;;108816;1269;41294;-68
2022/06/07 06:56:29;;;;;;;3.40;1.70;;;;;31.84;97457.40;;;;108951;1267;42588;-69
2022/06/07 06:58:59;;;;;;;6.00;1.80;;;;;32.30;97459.20;;;;108705;1269;41779;-67
2022/06/07 07:01:31;;;;;;;4.00;1.90;;;;;32.16;97457.00;;;;108791;1267;41180;-67
2022/06/07 07:04:07;;;;;;;4.00;1.60;;;;;31.54;97453.40;;;;108707;1268;41292;-67
2022/06/07 07:06:45;;;;;;;8.20;2.10;;;;;30.36;97458.40;;;;108828;1267;41197;-67
2022/06/07 07:09:26;;;;;;;3.50;1.70;;;;;29.22;97463.80;;;;108854;1267;41191;-67
2022/06/07 07:11:59;;;;;;;4.90;1.80;;;;;28.54;97460.40;;;;108862;1267;42325;-67
2022/06/07 07:14:36;;;;;;;2.40;1.60;;;;;27.44;97466.60;;;;108853;1267;42313;-66
2022/06/07 07:17:06;;;;;;;3.80;2.00;;;;;27.00;97464.60;;;;108939;1268;41621;-68
2022/06/07 07:19:36;;;;;;;7.20;2.00;;;;;26.68;97467.80;;;;108856;1269;41239;-68
2022/06/07 07:22:10;;;;;;;3.30;1.80;;;;;26.14;97462.00;;;;108748;1268;41327;-67
2022/06/07 07:24:41;;;;;;;4.20;1.90;;;;;25.76;97464.40;;;;108707;1270;42008;-67
2022/06/07 07:27:12;;;;;;;4.30;2.10;;;;;25.00;97465.40;;;;108768;1268;41273;-66
2022/06/07 07:29:41;;;;;;;12.90;2.00;;;;;24.68;97468.20;;;;108802;1269;41205;-68
2022/06/07 07:32:14;;;;;;;4.50;1.90;;;;;24.48;97468.80;;;;108833;1267;41203;-66
2022/06/07 07:34:54;;;;;;;4.90;2.00;;;;;24.00;97466.60;;;;108764;1268;41427;-67
2022/06/07 07:37:25;;;;;;;2.90;1.80;;;;;23.82;97465.20;;;;108876;1267;41187;-69
2022/06/07 07:40:03;;;;;;;4.60;1.90;;;;;23.70;97463.60;;;;108887;1267;41155;-66
2022/06/07 07:42:33;;;;;;;5.30;2.20;;;;;23.70;97463.80;;;;108830;1268;41256;-68
2022/06/07 07:45:08;;;;;;;5.10;2.20;;;;;23.82;97465.60;;;;108786;1268;42321;-68
2022/06/07 07:47:38;;;;;;;3.50;1.70;;;;;23.80;97466.20;;;;108815;1268;41303;-68
2022/06/07 07:50:08;;;;;;;3.90;1.90;;;;;23.90;97459.20;;;;108800;1267;41285;-68
2022/06/07 07:52:38;;;;;;;4.10;1.90;;;;;24.24;97456.00;;;;108714;1269;41285;-68
2022/06/07 07:55:12;;;;;;;4.00;1.80;;;;;24.20;97452.80;;;;108796;1267;42404;-68
2022/06/07 07:57:41;;;;;;;;;;;;;24.32;97454.00;;;;108776;1270;41188;-68
2022/06/07 08:00:13;;;;;;;4.30;1.90;;;;;24.42;97448.80;;;;108760;1270;42444;-68
2022/06/07 08:02:45;;;;;;;4.50;1.90;;;;;24.40;97441.20;;;;108803;1270;41216;-68
2022/06/07 08:05:27;;;;;;;4.00;1.60;;;;;24.50;97434.60;;;;108888;1267;41310;-68
2022/06/07 08:07:56;;;;;;;4.00;1.70;;;;;24.40;97438.60;;;;109099;1270;42275;-68
2022/06/07 08:10:26;;;;;;;2.90;1.60;;;;;24.30;97436.00;;;;108942;1268;42228;-68
2022/06/07 08:12:58;;;;;;;4.20;1.60;;;;;24.40;97434.60;;;;108903;1268;41544;-66
2022/06/07 08:15:31;;;;;;;3.90;1.80;;;;;24.56;97429.80;;;;108807;1270;41639;-68
2022/06/07 08:18:04;;;;;;;3.90;1.80;;;;;24.68;97420.60;;;;108741;1268;41533;-68
2022/06/07 08:20:35;;;;;;;4.20;1.90;;;;;24.94;97427.40;;;;108836;1267;41423;-69
2022/06/07 08:23:07;;;;;;;3.80;1.90;;;;;24.80;97428.00;;;;108807;1269;41931;-69
2022/06/07 08:25:38;;;;;;;4.50;2.10;;;;;24.70;97421.20;;;;108961;1268;41752;-71
2022/06/07 08:28:07;;;;;;;5.20;2.20;;;;;24.70;97420.40;;;;109153;1268;41397;-69
2022/06/07 08:30:39;;;;;;;5.10;1.90;;;;;24.80;97418.60;;;;109055;1268;41054;-67
2022/06/07 08:38:45;;;;;;;10.10;2.40;;;;;25.00;97405.20;;;;108782;1268;41732;-67
2022/06/07 08:41:25;;;;;;;4.10;1.70;;;;;25.10;97400.20;;;;108749;1270;41613;-67
2022/06/07 08:44:02;;;;;;;3.20;1.60;;;;;25.10;97396.00;;;;108911;1270;41281;-68
2022/06/07 08:46:36;;;;;;;3.50;1.80;;;;;25.18;97396.20;;;;108897;1268;42198;-69
2022/06/07 08:49:07;;;;;;;4.20;1.80;;;;;25.50;97394.40;;;;109128;1267;41950;-68
2022/06/07 08:51:44;;;;;;;4.30;1.80;;;;;25.50;97386.00;;;;108832;1267;41165;-68
2022/06/07 08:54:20;;;;;;;5.70;2.10;;;;;25.66;97387.20;;;;108942;1267;41659;-68
2022/06/07 08:56:49;;;;;;;2.70;1.70;;;;;25.84;97390.00;;;;108846;1269;41178;-69
2022/06/07 08:59:19;;;;;;;3.50;1.70;;;;;26.00;97386.00;;;;108858;1268;41233;-68
2022/06/07 09:02:04;;;;;;;5.00;1.70;;;;;26.02;97384.80;;;;108965;1267;41505;-67
2022/06/07 09:04:40;;;;;;;3.60;1.90;;;;;26.16;97379.40;;;;108992;1267;41175;-67
2022/06/07 09:07:15;;;;;;;4.20;1.70;;;;;26.32;97383.40;;;;108948;1267;41180;-68
2022/06/07 09:12:42;;;;;;;2.60;1.60;;;;;26.80;97371.60;;;;108875;1268;41176;-68
2022/06/07 09:15:15;;;;;;;3.50;1.70;;;;;27.02;97365.80;;;;108870;1270;41865;-68
2022/06/07 09:17:51;;;;;;;3.30;1.70;;;;;27.50;97369.60;;;;108822;1268;41193;-68
2022/06/07 09:20:29;;;;;;;2.50;1.70;;;;;28.10;97363.00;;;;108776;1269;41924;-68
2022/06/07 09:23:17;;;;;;;6.70;1.60;;;;;28.38;97357.40;;;;108966;1268;41382;-69
2022/06/07 09:25:49;;;;;;;1.70;1.40;;;;;29.34;97356.00;;;;109002;1267;41413;-68
2022/06/07 09:28:29;;;;;;;2.40;1.40;;;;;30.04;97348.80;;;;108809;1267;41481;-67
2022/06/07 09:31:25;;;;;;;2.00;1.30;;;;;30.94;97340.60;;;;108898;1269;41577;-67
2022/06/07 09:33:56;;;;;;;3.30;1.60;;;;;31.66;97338.80;;;;109022;1267;41178;-68
2022/06/07 09:36:36;;;;;;;3.90;1.40;;;;;31.70;97339.80;;;;109110;1268;41290;-68
2022/06/07 09:39:26;;;;;;;3.40;1.70;;;;;32.12;97330.40;;;;109101;1268;41174;-69
2022/06/07 09:42:12;;;;;;;3.00;1.40;;;;;32.12;97329.60;;;;108862;1269;41199;-67
2022/06/07 09:45:11;;;;;;;3.30;1.70;;;;;29.44;97335.60;;;;108844;1269;41270;-70
2022/06/07 09:47:40;;;;;;;3.20;1.60;;;;;30.74;97330.20;;;;108954;1267;40777;-69
2022/06/07 09:50:15;;;;;;;3.00;1.50;;;;;30.96;97329.00;;;;108897;1270;41281;-69
2022/06/07 09:52:57;;;;;;;3.30;1.70;;;;;30.00;97331.20;;;;109081;1267;41177;-69
2022/06/07 09:56:20;;;;;;;2.70;1.30;;;;;30.32;97327.80;;;;108907;1270;42160;-68
2022/06/07 09:59:00;;;;;;;3.00;1.70;;;;;31.26;97326.20;;;;108386;1273;41958;-70
2022/06/07 10:01:41;;;;;;;5.20;1.60;;;;;32.16;97327.00;;;;108672;1276;41285;-68
2022/06/07 10:04:32;;;;;;;3.60;1.70;;;;;31.50;97315.00;;;;108636;1274;41187;-69
2022/06/07 10:07:06;;;;;;;3.50;1.60;;;;;31.60;97320.40;;;;108648;1273;41180;-68
2022/06/07 10:10:05;;;;;;;3.20;1.50;;;;;31.40;97326.40;;;;108547;1273;42293;-68
2022/06/07 10:12:42;;;;;;;3.40;1.60;;;;;30.96;97323.20;;;;108391;1273;41515;-68
2022/06/07 10:15:35;;;;;;;3.00;1.50;;;;;31.50;97317.40;;;;108466;1274;41180;-69
2022/06/07 10:18:10;;;;;;;3.00;1.60;;;;;31.66;97312.60;;;;108457;1272;41297;-69
2022/06/07 10:20:44;;;;;;;4.50;1.70;;;;;31.32;97307.40;;;;108480;1273;41307;-67
2022/06/07 10:23:50;;;;;;;5.40;1.70;;;;;30.98;97304.40;;;;108468;1273;41215;-69
2022/06/07 10:26:40;;;;;;;3.70;1.70;;;;;29.88;97305.80;;;;108528;1273;41230;-68
2022/06/07 10:29:13;;;;;;;3.90;1.70;;;;;28.96;97311.20;;;;108493;1273;41299;-70
2022/06/07 10:31:54;;;;;;;1.80;1.50;;;;;29.94;97301.60;;;;108487;1273;41399;-69
2022/06/07 10:34:38;;;;;;;4.40;1.60;;;;;30.60;97296.00;;;;108980;1267;41783;-69
2022/06/07 10:37:07;;;;;;;1.90;1.50;;;;;30.92;97296.40;;;;109097;1267;41180;-68
2022/06/07 10:39:35;;;;;;;3.70;1.40;;;;;30.30;97289.40;;;;108773;1270;42209;-68
2022/06/07 10:42:41;;;;;;;6.10;1.70;;;;;30.74;97283.00;;;;108917;1267;41564;-67
2022/06/07 10:45:21;;;;;;;4.40;1.70;;;;;31.18;97290.40;;;;108894;1267;42396;-68
2022/06/07 10:47:56;;;;;;;1.80;1.40;;;;;30.02;97294.00;;;;108941;1268;40978;-69
2022/06/07 10:50:42;;;;;;;2.50;1.50;;;;;30.30;97286.80;;;;109041;1267;41740;-68
2022/06/07 10:53:17;;;;;;;2.40;1.50;;;;;30.72;97279.00;;;;108999;1267;41608;-69
2022/06/07 10:56:09;;;;;;;4.90;1.80;;;;;30.68;97275.80;;;;108985;1267;41308;-69
2022/06/07 10:58:43;;;;;;;4.20;1.50;;;;;31.54;97280.00;;;;109022;1267;41285;-68
2022/06/07 11:01:19;;;;;;;6.60;1.90;;;;;31.80;97270.20;;;;108921;1268;41975;-68
2022/06/07 11:03:48;;;;;;;5.40;1.60;;;;;33.12;97273.80;;;;108833;1267;41365;-68
2022/06/07 11:09:58;;;;;;;3.50;1.70;;;;;32.90;97260.40;;;;108765;1270;41618;-68
2022/06/07 11:12:54;;;;;;;2.90;1.40;;;;;33.94;97257.00;;;;108963;1268;41287;-70
2022/06/07 11:15:40;;;;;;;2.50;1.30;;;;;34.60;97249.20;;;;108995;1269;41180;-70
2022/06/07 11:18:24;;;;;;;2.80;1.40;;;;;34.78;97247.80;;;;108945;1267;41170;-68
2022/06/07 11:21:02;;;;;;;3.40;1.60;;;;;35.04;97248.00;;;;108922;1267;41168;-68
2022/06/07 11:23:34;;;;;;;3.20;1.60;;;;;35.82;97245.40;;;;109126;1267;41289;-70
2022/06/07 11:26:15;;;;;;;2.70;1.60;;;;;36.40;97239.80;;;;108955;1267;41493;-69
2022/06/07 11:28:49;;;;;;;5.70;1.50;;;;;36.20;97239.60;;;;108973;1270;41181;-69
2022/06/07 11:31:20;;;;;;;3.30;1.30;;;;;35.28;97242.00;;;;109088;1267;41240;-69
2022/06/07 11:33:53;;;;;;;3.30;1.50;;;;;35.50;97234.80;;;;109056;1267;41792;-69
2022/06/07 11:36:24;;;;;;;7.00;1.80;;;;;35.50;97234.80;;;;109044;1268;41162;-68
2022/06/07 11:38:54;;;;;;;4.60;1.60;;;;;35.70;97237.60;;;;109035;1267;41572;-69
2022/06/07 11:41:37;;;;;;;4.30;1.60;;;;;34.76;97235.00;;;;109023;1267;41323;-69
2022/06/07 11:44:11;;;;;;;6.90;1.70;;;;;33.70;97229.20;;;;109017;1267;41236;-68
2022/06/07 11:47:14;;;;;;;2.70;1.50;;;;;33.96;97229.80;;;;109061;1267;41193;-70
2022/06/07 11:49:47;;;;;;;1.40;1.20;;;;;33.66;97224.00;;;;109097;1267;42207;-69
2022/06/07 11:52:24;;;;;;;2.70;1.50;;;;;34.80;97219.80;;;;109051;1268;41147;-69
2022/06/07 11:55:17;;;;;;;4.80;1.80;;;;;35.34;97214.20;;;;109098;1269;41370;-69
2022/06/07 11:58:04;;;;;;;2.50;1.30;;;;;35.58;97219.40;;;;109088;1268;41358;-69
2022/06/07 12:00:34;;;;;;;1.30;1.10;;;;;35.06;97206.40;;;;108941;1267;41298;-69
2022/06/07 12:03:08;;;;;;;3.20;1.40;;;;;35.00;97214.20;;;;109005;1267;41284;-68
2022/06/07 12:05:43;;;;;;;1.40;1.30;;;;;35.34;97207.00;;;;109010;1267;41996;-68
2022/06/07 12:08:28;;;;;;;2.70;1.30;;;;;35.40;97212.40;;;;108919;1267;41172;-69
2022/06/07 12:11:20;;;;;;;2.00;1.40;;;;;33.44;97207.40;;;;109059;1267;41206;-71
2022/06/07 12:14:34;;;;;;;1.50;1.30;;;;;32.18;97212.40;;;;109052;1267;41278;-70
2022/06/07 12:17:19;;;;;;;4.70;1.60;;;;;32.18;97211.00;;;;108821;1270;41242;-70
2022/06/07 12:19:48;;;;;;;4.70;1.40;;;;;31.20;97213.80;;;;109056;1267;41779;-69
2022/06/07 12:22:23;;;;;;;5.40;1.60;;;;;30.70;97204.00;;;;109010;1267;41275;-72
2022/06/07 12:25:01;;;;;;;3.30;1.60;;;;;30.52;97209.20;;;;109084;1267;42374;-70
2022/06/07 12:27:34;;;;;;;4.00;1.50;;;;;30.00;97208.80;;;;108996;1267;41630;-69
2022/06/07 12:30:38;;;;;;;5.20;1.80;;;;;29.90;97206.60;;;;108860;1269;41290;-70
2022/06/07 12:33:29;;;;;;;4.00;1.70;;;;;29.70;97199.00;;;;108650;1273;41221;-69
2022/06/07 12:36:16;;;;;;;2.80;1.60;;;;;29.60;97199.80;;;;108607;1273;41932;-69
2022/06/07 12:38:47;;;;;;;2.00;1.50;;;;;29.20;97197.20;;;;108655;1273;41186;-70
2022/06/07 12:41:25;;;;;;;2.60;1.70;;;;;29.26;97191.80;;;;108720;1273;41641;-69
2022/06/07 12:43:57;;;;;;;2.00;1.40;;;;;28.80;97192.40;;;;108607;1275;41103;-69
2022/06/07 12:46:33;;;;;;;3.20;1.60;;;;;28.90;97185.20;;;;108410;1276;41290;-68
2022/06/07 12:49:11;;;;;;;3.70;1.80;;;;;29.18;97183.40;;;;108430;1276;41224;-69
2022/06/07 12:51:41;;;;;;;3.40;1.60;;;;;29.12;97181.00;;;;108612;1276;41633;-68
2022/06/07 12:54:17;;;;;;;5.70;1.70;;;;;29.08;97177.40;;;;108590;1273;41258;-68
2022/06/07 12:56:53;;;;;;;2.40;1.50;;;;;29.10;97179.20;;;;108567;1274;41207;-68
2022/06/07 12:59:25;;;;;;;3.20;1.60;;;;;28.62;97180.80;;;;108654;1273;41526;-69
2022/06/07 13:01:54;;;;;;;2.70;1.60;;;;;28.90;97176.00;;;;108652;1273;41175;-68
2022/06/07 13:04:42;;;;;;;3.40;1.70;;;;;28.96;97174.60;;;;108636;1276;41187;-70
2022/06/07 13:07:32;;;;;;;2.60;1.40;;;;;29.00;97169.40;;;;108681;1271;41321;-67
2022/06/07 13:10:15;;;;;;;6.50;2.00;;;;;29.00;97164.80;;;;108832;1270;41191;-67
2022/06/07 13:12:47;;;;;;;4.50;1.90;;;;;28.56;97171.20;;;;108926;1270;41226;-68
2022/06/07 13:15:20;;;;;;;3.00;1.70;;;;;28.40;97169.80;;;;108946;1270;41864;-67
2022/06/07 13:18:00;;;;;;;2.40;1.50;;;;;28.38;97166.80;;;;108733;1270;42430;-68